21°C Temp
9°C Dewpoint
46% Humidity
Temperature
11 KM/H
7 MPH
6 KTS
70°
East North
East

Wind Speed
Clear
Conditions
Pressure 1013.92 (hPa) - 29.94 (in)
Visibility 6.2 (mi) - 10.0 (km)

Current Conditions
YBBN
Location 16(km)
Metar :YBBN 140400Z 07006KT CAVOK 21/09 Q1014
Mon 14th June 14:00 pm

Airport
  Metar Aviation API Data Provided by https://www.checkwx.com/ PHP scripts by weather34.com ©2021